AAL710 EDDF-KCLT
Flight info
| Callsign | AAL710 |
|---|---|
| Flight time | N/A |
| Altitude | 36000 |
| Route | OBOKA3D/07C OBOKA Z28 DIBIR DCT BUDIP DCT RAVLO Y70 OTBED L60 PENIL M144 BAGSO DCT DEVOL DCT BEXET DCT DOGAL/M084F370 DCT 54N020W 53N030W 5130N04000W 50N050W DCT ELSIR/N0480F380 N402C ALLEX/N0488F400 DCT KAYCC DCT KYLOH DCT NELIE Q75 GVE DCT AIROW CHSLY6 |
| Aircraft | B772/H-SDE2E3FGHIJ5LORVWXY/LB1D1 |
Departure
| Time | 2026-05-07 19:04 |
|---|---|
| Airport | Frankfurt Main Airport (EDDF) |
Arrival
| Time | N/A |
|---|---|
| Airport | Charlotte Douglas International Airport (KCLT) |
| Time | Latitude | Longitude | Altitude | Speed | Heading |
|---|---|---|---|---|---|
| 2026-05-07 18:17 | 50.03219 | 8.57305 | 369 ft | 0 kts | 204° |
| 2026-05-07 18:48 | 50.03234 | 8.57316 | 368 ft | 4 kts | 204° |
| 2026-05-07 18:48 | 50.03257 | 8.57332 | 364 ft | 2 kts | 204° |
| 2026-05-07 18:48 | 50.03277 | 8.57350 | 368 ft | 4 kts | 227° |
| 2026-05-07 18:49 | 50.03288 | 8.57384 | 367 ft | 4 kts | 272° |
| 2026-05-07 18:49 | 50.03282 | 8.57424 | 367 ft | 4 kts | 293° |
| 2026-05-07 18:49 | 50.03284 | 8.57420 | 367 ft | 4 kts | 294° |
| 2026-05-07 18:49 | 50.03295 | 8.57382 | 365 ft | 4 kts | 295° |
| 2026-05-07 18:50 | 50.03302 | 8.57358 | 364 ft | 0 kts | 295° |
| 2026-05-07 18:54 | 50.03316 | 8.57313 | 366 ft | 7 kts | 295° |
| 2026-05-07 18:54 | 50.03335 | 8.57249 | 364 ft | 7 kts | 295° |
| 2026-05-07 18:54 | 50.03354 | 8.57182 | 364 ft | 7 kts | 290° |
| 2026-05-07 18:55 | 50.03350 | 8.57104 | 361 ft | 7 kts | 252° |
| 2026-05-07 18:55 | 50.03331 | 8.57023 | 364 ft | 9 kts | 250° |
| 2026-05-07 18:55 | 50.03305 | 8.56913 | 360 ft | 12 kts | 250° |
| 2026-05-07 18:55 | 50.03272 | 8.56775 | 361 ft | 15 kts | 250° |
| 2026-05-07 18:56 | 50.03230 | 8.56595 | 362 ft | 19 kts | 250° |
| 2026-05-07 18:56 | 50.03183 | 8.56398 | 360 ft | 19 kts | 249° |
| 2026-05-07 18:56 | 50.03136 | 8.56203 | 356 ft | 19 kts | 249° |
| 2026-05-07 18:56 | 50.03088 | 8.56003 | 358 ft | 19 kts | 250° |
| 2026-05-07 18:57 | 50.03042 | 8.55808 | 359 ft | 19 kts | 250° |
| 2026-05-07 18:57 | 50.02994 | 8.55610 | 355 ft | 19 kts | 249° |
| 2026-05-07 18:57 | 50.02947 | 8.55413 | 355 ft | 19 kts | 250° |
| 2026-05-07 18:57 | 50.02900 | 8.55216 | 358 ft | 19 kts | 249° |
| 2026-05-07 18:58 | 50.02853 | 8.55023 | 355 ft | 16 kts | 249° |
| 2026-05-07 18:58 | 50.02826 | 8.54885 | 352 ft | 9 kts | 271° |
| 2026-05-07 18:58 | 50.02866 | 8.54820 | 349 ft | 9 kts | 339° |
| 2026-05-07 18:58 | 50.02923 | 8.54758 | 351 ft | 10 kts | 304° |
| 2026-05-07 18:59 | 50.02974 | 8.54680 | 351 ft | 11 kts | 333° |
| 2026-05-07 18:59 | 50.03049 | 8.54632 | 336 ft | 12 kts | 339° |
| 2026-05-07 18:59 | 50.03127 | 8.54587 | 351 ft | 12 kts | 340° |
| 2026-05-07 18:59 | 50.03199 | 8.54532 | 351 ft | 12 kts | 319° |
| 2026-05-07 19:00 | 50.03231 | 8.54414 | 345 ft | 12 kts | 272° |
| 2026-05-07 19:00 | 50.03209 | 8.54286 | 350 ft | 12 kts | 250° |
| 2026-05-07 19:00 | 50.03176 | 8.54151 | 352 ft | 15 kts | 250° |
| 2026-05-07 19:00 | 50.03139 | 8.53998 | 335 ft | 15 kts | 249° |
| 2026-05-07 19:01 | 50.03103 | 8.53845 | 334 ft | 15 kts | 249° |
| 2026-05-07 19:01 | 50.03069 | 8.53706 | 335 ft | 9 kts | 249° |
| 2026-05-07 19:01 | 50.03082 | 8.53615 | 337 ft | 9 kts | 316° |
| 2026-05-07 19:01 | 50.03140 | 8.53572 | 336 ft | 10 kts | 340° |
| 2026-05-07 19:02 | 50.03204 | 8.53536 | 351 ft | 10 kts | 339° |
| 2026-05-07 19:02 | 50.03263 | 8.53529 | 345 ft | 9 kts | 27° |
| 2026-05-07 19:02 | 50.03292 | 8.53589 | 352 ft | 0 kts | 68° |
| 2026-05-07 19:03 | 50.03371 | 8.53914 | 350 ft | 77 kts | 70° |
| 2026-05-07 19:03 | 50.03663 | 8.55126 | 357 ft | 160 kts | 69° |
| 2026-05-07 19:03 | 50.04114 | 8.56942 | 959 ft | 186 kts | 69° |
| 2026-05-07 19:04 | 50.04569 | 8.58858 | 1993 ft | 190 kts | 69° |
| 2026-05-07 19:04 | 50.05016 | 8.60738 | 2653 ft | 187 kts | 68° |
| 2026-05-07 19:04 | 50.05507 | 8.62676 | 3038 ft | 196 kts | 66° |
| 2026-05-07 19:04 | 50.06041 | 8.64664 | 3447 ft | 202 kts | 65° |
| 2026-05-07 19:05 | 50.06612 | 8.66682 | 3862 ft | 206 kts | 64° |
| 2026-05-07 19:05 | 50.07224 | 8.68757 | 4146 ft | 217 kts | 63° |
| 2026-05-07 19:05 | 50.07911 | 8.70846 | 4548 ft | 220 kts | 57° |
| 2026-05-07 19:05 | 50.08902 | 8.72702 | 4778 ft | 230 kts | 35° |
| 2026-05-07 19:06 | 50.10352 | 8.73810 | 5023 ft | 237 kts | 20° |
| 2026-05-07 19:06 | 50.13667 | 8.75643 | 5703 ft | 262 kts | 18° |
| 2026-05-07 19:06 | 50.15422 | 8.76615 | 6134 ft | 269 kts | 19° |
| 2026-05-07 19:07 | 50.17174 | 8.77713 | 6701 ft | 272 kts | 21° |
| 2026-05-07 19:07 | 50.18902 | 8.78878 | 7241 ft | 275 kts | 22° |
| 2026-05-07 19:07 | 50.20656 | 8.80061 | 7959 ft | 270 kts | 22° |
| 2026-05-07 19:07 | 50.22402 | 8.81254 | 8429 ft | 278 kts | 22° |
| 2026-05-07 19:08 | 50.24202 | 8.82428 | 8844 ft | 280 kts | 14° |
| 2026-05-07 19:08 | 50.26170 | 8.82683 | 9018 ft | 291 kts | 347° |
| 2026-05-07 19:08 | 50.27950 | 8.81393 | 9682 ft | 282 kts | 319° |
| 2026-05-07 19:08 | 50.29165 | 8.79051 | 10338 ft | 279 kts | 294° |
| 2026-05-07 19:09 | 50.29764 | 8.76133 | 10514 ft | 290 kts | 285° |
| 2026-05-07 19:09 | 50.30329 | 8.72992 | 10676 ft | 309 kts | 287° |
| 2026-05-07 19:09 | 50.30993 | 8.69679 | 10832 ft | 329 kts | 288° |
| 2026-05-07 19:09 | 50.31740 | 8.66162 | 10994 ft | 350 kts | 288° |
| 2026-05-07 19:10 | 50.32541 | 8.62472 | 11416 ft | 363 kts | 289° |
| 2026-05-07 19:10 | 50.33356 | 8.58734 | 12030 ft | 372 kts | 289° |
| 2026-05-07 19:10 | 50.34198 | 8.54870 | 12842 ft | 377 kts | 289° |
| 2026-05-07 19:10 | 50.35046 | 8.50972 | 13780 ft | 380 kts | 288° |
| 2026-05-07 19:11 | 50.35900 | 8.47037 | 14614 ft | 383 kts | 288° |
| 2026-05-07 19:11 | 50.36594 | 8.43836 | 15255 ft | 387 kts | 288° |
| 2026-05-07 19:11 | 50.37458 | 8.39784 | 16036 ft | 387 kts | 286° |
| 2026-05-07 19:11 | 50.37821 | 8.35658 | 16534 ft | 394 kts | 266° |
| 2026-05-07 19:12 | 50.37234 | 8.31447 | 17235 ft | 395 kts | 252° |
| 2026-05-07 19:12 | 50.36352 | 8.27314 | 17861 ft | 404 kts | 252° |
| 2026-05-07 19:12 | 50.35485 | 8.23101 | 18650 ft | 407 kts | 252° |
| 2026-05-07 19:12 | 50.34624 | 8.18852 | 19466 ft | 408 kts | 252° |
| 2026-05-07 19:13 | 50.33767 | 8.14602 | 20220 ft | 411 kts | 253° |
| 2026-05-07 19:13 | 50.32902 | 8.10304 | 20934 ft | 415 kts | 253° |
| 2026-05-07 19:13 | 50.32041 | 8.06022 | 21597 ft | 419 kts | 253° |
| 2026-05-07 19:13 | 50.31159 | 8.01646 | 22258 ft | 423 kts | 252° |
| 2026-05-07 19:14 | 50.30269 | 7.97243 | 22927 ft | 426 kts | 253° |
| 2026-05-07 19:14 | 50.29649 | 7.92718 | 23302 ft | 428 kts | 268° |
| 2026-05-07 19:14 | 50.29956 | 7.88053 | 23746 ft | 436 kts | 284° |
| 2026-05-07 19:14 | 50.31057 | 7.83619 | 24095 ft | 439 kts | 295° |
| 2026-05-07 19:15 | 50.32617 | 7.79508 | 24082 ft | 440 kts | 305° |
| 2026-05-07 19:15 | 50.34616 | 7.75862 | 24073 ft | 441 kts | 313° |
| 2026-05-07 19:15 | 50.36916 | 7.72669 | 24073 ft | 443 kts | 321° |
| 2026-05-07 19:15 | 50.39451 | 7.70005 | 24190 ft | 447 kts | 325° |
| 2026-05-07 19:16 | 50.42004 | 7.67197 | 24678 ft | 448 kts | 319° |
| 2026-05-07 19:16 | 50.44329 | 7.63937 | 25259 ft | 448 kts | 313° |
| 2026-05-07 19:16 | 50.46419 | 7.60296 | 25773 ft | 448 kts | 309° |
| 2026-05-07 19:16 | 50.48481 | 7.56585 | 26218 ft | 451 kts | 310° |
| 2026-05-07 19:17 | 50.49861 | 7.54101 | 26500 ft | 454 kts | 310° |
| 2026-05-07 19:17 | 50.51957 | 7.50341 | 26900 ft | 457 kts | 310° |
| 2026-05-07 19:17 | 50.54066 | 7.46572 | 27338 ft | 460 kts | 310° |
| 2026-05-07 19:17 | 50.56191 | 7.42784 | 27752 ft | 462 kts | 310° |
| 2026-05-07 19:18 | 50.58323 | 7.38985 | 28148 ft | 464 kts | 310° |
| 2026-05-07 19:18 | 50.60470 | 7.35158 | 28513 ft | 467 kts | 310° |
| 2026-05-07 19:18 | 50.62487 | 7.31562 | 28834 ft | 469 kts | 310° |
| 2026-05-07 19:18 | 50.64649 | 7.27700 | 29154 ft | 471 kts | 310° |
| 2026-05-07 19:19 | 50.66817 | 7.23822 | 29456 ft | 474 kts | 310° |
| 2026-05-07 19:19 | 50.69002 | 7.19909 | 29707 ft | 476 kts | 310° |
| 2026-05-07 19:19 | 50.71194 | 7.15975 | 29982 ft | 478 kts | 310° |
| 2026-05-07 19:19 | 50.73358 | 7.12084 | 30320 ft | 477 kts | 310° |
| 2026-05-07 19:20 | 50.75571 | 7.08101 | 30670 ft | 476 kts | 310° |
| 2026-05-07 19:20 | 50.77720 | 7.04227 | 31005 ft | 474 kts | 310° |
| 2026-05-07 19:20 | 50.79895 | 7.00301 | 31312 ft | 474 kts | 309° |
| 2026-05-07 19:20 | 50.82010 | 6.96476 | 31596 ft | 474 kts | 309° |
| 2026-05-07 19:21 | 50.84172 | 6.92559 | 31895 ft | 473 kts | 309° |
| 2026-05-07 19:21 | 50.86333 | 6.88639 | 32199 ft | 472 kts | 309° |
| 2026-05-07 19:21 | 50.88493 | 6.84714 | 32494 ft | 472 kts | 309° |
| 2026-05-07 19:21 | 50.90647 | 6.80794 | 32788 ft | 471 kts | 309° |
| 2026-05-07 19:22 | 50.92796 | 6.76877 | 33082 ft | 471 kts | 309° |
| 2026-05-07 19:22 | 50.94943 | 6.72957 | 33383 ft | 470 kts | 309° |
| 2026-05-07 19:22 | 50.97086 | 6.69040 | 33672 ft | 470 kts | 309° |
| 2026-05-07 19:22 | 50.99238 | 6.65101 | 33972 ft | 469 kts | 309° |
| 2026-05-07 19:23 | 51.01361 | 6.61207 | 34241 ft | 469 kts | 309° |
| 2026-05-07 19:23 | 51.03492 | 6.57294 | 34525 ft | 468 kts | 309° |
| 2026-05-07 19:23 | 51.05620 | 6.53379 | 34716 ft | 468 kts | 309° |
| 2026-05-07 19:23 | 51.07746 | 6.49462 | 34933 ft | 469 kts | 309° |
| 2026-05-07 19:24 | 51.09877 | 6.45530 | 35147 ft | 469 kts | 309° |
| 2026-05-07 19:24 | 51.12009 | 6.41590 | 35382 ft | 469 kts | 309° |
| 2026-05-07 19:24 | 51.14136 | 6.37653 | 35598 ft | 469 kts | 308° |
| 2026-05-07 19:24 | 51.16263 | 6.33710 | 35806 ft | 470 kts | 308° |
| 2026-05-07 19:25 | 51.18395 | 6.29751 | 35940 ft | 472 kts | 308° |
| 2026-05-07 19:25 | 51.20536 | 6.25769 | 36006 ft | 474 kts | 308° |
| 2026-05-07 19:25 | 51.24831 | 6.17766 | 36078 ft | 473 kts | 308° |
| 2026-05-07 19:26 | 51.28927 | 6.09636 | 36073 ft | 467 kts | 302° |
| 2026-05-07 19:26 | 51.32420 | 6.00921 | 36073 ft | 466 kts | 301° |
| 2026-05-07 19:27 | 51.35940 | 5.92209 | 36077 ft | 466 kts | 301° |
| 2026-05-07 19:27 | 51.39853 | 5.83906 | 36072 ft | 470 kts | 311° |
| 2026-05-07 19:28 | 51.44391 | 5.76334 | 36084 ft | 472 kts | 312° |
| 2026-05-07 19:28 | 51.48952 | 5.68740 | 36070 ft | 473 kts | 311° |
| 2026-05-07 19:29 | 51.53502 | 5.61079 | 36071 ft | 474 kts | 311° |
| 2026-05-07 19:29 | 51.58013 | 5.53420 | 36067 ft | 475 kts | 311° |
| 2026-05-07 19:30 | 51.62545 | 5.45692 | 36087 ft | 475 kts | 311° |
| 2026-05-07 19:30 | 51.67072 | 5.37951 | 36087 ft | 474 kts | 311° |
| 2026-05-07 19:31 | 51.71607 | 5.30172 | 36088 ft | 474 kts | 311° |
| 2026-05-07 19:31 | 51.76097 | 5.22449 | 36081 ft | 474 kts | 311° |
| 2026-05-07 19:32 | 51.80611 | 5.14659 | 36082 ft | 474 kts | 311° |
| 2026-05-07 19:32 | 51.85083 | 5.06918 | 36081 ft | 473 kts | 311° |
| 2026-05-07 19:33 | 51.89587 | 4.99096 | 36079 ft | 473 kts | 311° |
| 2026-05-07 19:33 | 51.94079 | 4.91271 | 36080 ft | 473 kts | 311° |
| 2026-05-07 19:34 | 51.98538 | 4.83479 | 36087 ft | 474 kts | 310° |
| 2026-05-07 19:34 | 52.03031 | 4.75602 | 36081 ft | 474 kts | 310° |
| 2026-05-07 19:35 | 52.07512 | 4.67722 | 36079 ft | 474 kts | 310° |
| 2026-05-07 19:35 | 52.11963 | 4.59870 | 36077 ft | 474 kts | 310° |
| 2026-05-07 19:36 | 52.16442 | 4.51943 | 36081 ft | 474 kts | 310° |
| 2026-05-07 19:36 | 52.20893 | 4.44040 | 36089 ft | 474 kts | 310° |
| 2026-05-07 19:37 | 52.25360 | 4.36082 | 36078 ft | 475 kts | 310° |
| 2026-05-07 19:37 | 52.29838 | 4.28081 | 36088 ft | 476 kts | 310° |
| 2026-05-07 19:38 | 52.34298 | 4.20086 | 36091 ft | 476 kts | 310° |
| 2026-05-07 19:38 | 52.38726 | 4.12122 | 36093 ft | 476 kts | 310° |
| 2026-05-07 19:39 | 52.43199 | 4.04051 | 36096 ft | 476 kts | 310° |
| 2026-05-07 19:39 | 52.47623 | 3.96042 | 36109 ft | 477 kts | 310° |
| 2026-05-07 19:40 | 52.52077 | 3.87953 | 36104 ft | 478 kts | 310° |
| 2026-05-07 19:40 | 52.56541 | 3.79818 | 36102 ft | 478 kts | 310° |
| 2026-05-07 19:41 | 52.60965 | 3.71732 | 36104 ft | 479 kts | 310° |
| 2026-05-07 19:41 | 52.65424 | 3.63553 | 36106 ft | 479 kts | 310° |
| 2026-05-07 19:42 | 52.69882 | 3.55350 | 36110 ft | 479 kts | 310° |
| 2026-05-07 19:42 | 52.74301 | 3.47191 | 36115 ft | 479 kts | 310° |
| 2026-05-07 19:43 | 52.78749 | 3.38952 | 36110 ft | 480 kts | 310° |
| 2026-05-07 19:43 | 52.83199 | 3.30680 | 36110 ft | 481 kts | 310° |
| 2026-05-07 19:44 | 52.87627 | 3.22426 | 36106 ft | 481 kts | 310° |
| 2026-05-07 19:44 | 52.91362 | 3.13386 | 36102 ft | 477 kts | 293° |
| 2026-05-07 19:45 | 52.93394 | 3.02981 | 36120 ft | 473 kts | 280° |
| 2026-05-07 19:45 | 52.94723 | 2.92265 | 36112 ft | 473 kts | 280° |
| 2026-05-07 19:46 | 52.96060 | 2.81625 | 36107 ft | 474 kts | 280° |
| 2026-05-07 19:46 | 52.97438 | 2.70909 | 36108 ft | 474 kts | 281° |
| 2026-05-07 19:47 | 52.98820 | 2.60188 | 36102 ft | 475 kts | 281° |
| 2026-05-07 19:47 | 53.00186 | 2.49504 | 36117 ft | 477 kts | 280° |
| 2026-05-07 19:48 | 53.01557 | 2.38684 | 36111 ft | 478 kts | 280° |
| 2026-05-07 19:48 | 53.02919 | 2.27843 | 36112 ft | 479 kts | 280° |
| 2026-05-07 19:49 | 53.04263 | 2.17078 | 36106 ft | 479 kts | 280° |
| 2026-05-07 19:49 | 53.05606 | 2.06227 | 36106 ft | 478 kts | 280° |
| 2026-05-07 19:50 | 53.06938 | 1.95392 | 36113 ft | 477 kts | 280° |
| 2026-05-07 19:50 | 53.08250 | 1.84643 | 36097 ft | 476 kts | 279° |
| 2026-05-07 19:51 | 53.09556 | 1.73856 | 36096 ft | 475 kts | 279° |
| 2026-05-07 19:51 | 53.10853 | 1.63057 | 36097 ft | 474 kts | 279° |
| 2026-05-07 19:52 | 53.12129 | 1.52337 | 36112 ft | 474 kts | 279° |
| 2026-05-07 19:52 | 53.13403 | 1.41555 | 36099 ft | 474 kts | 279° |
| 2026-05-07 19:53 | 53.14668 | 1.30760 | 36101 ft | 474 kts | 279° |